Time;durP1;ratioP1;P1;durP2;ratioP2;P2;SDS_P1;SDS_P2;PMS_P1;PMS_P2;Temp;Humidity;BMP_temperature;BMP_pressure;BME280_temperature;BME280_humidity;BME280_pressure;Samples;Min_cycle;Max_cycle;Signal;HPM_P1;HPM_P2
2022/04/13 00:02:02;;;;;;;;;;;4.40;95.20;;;;;;5041803;28;20398;-83
2022/04/13 00:04:36;;;;;;;;;;;9.30;97.40;;;;;;5044008;28;19916;-82
2022/04/13 00:07:02;;;;;;;;;;;6.70;96.80;;;;;;5058555;28;20012;-83
2022/04/13 00:09:28;;;;;;;;;;;4.70;95.40;;;;;;5069178;28;19916;-82
2022/04/13 00:12:03;;;;;;;;;;;4.50;96.10;;;;;;5067730;28;20373;-80
2022/04/13 00:14:33;;;;;;;;;;;6.50;95.90;;;;;;5052766;28;19913;-80
2022/04/13 00:17:07;;;;;;;;;;;6.60;96.40;;;;;;5071797;28;19909;-81
2022/04/13 00:19:35;;;;;;;;;;;5.80;95.60;;;;;;5057725;28;20190;-81
2022/04/13 00:22:01;;;;;;;;;;;6.30;96.20;;;;;;5054390;28;19924;-82
2022/04/13 00:24:32;;;;;;;;;;;6.30;96.90;;;;;;5057291;28;19965;-81
2022/04/13 00:27:00;;;;;;;;;;;6.50;96.40;;;;;;5073621;28;19917;-80
2022/04/13 00:29:34;;;;;;;;;;;5.90;96.20;;;;;;5069884;28;19913;-81
2022/04/13 00:32:03;;;;;;;;;;;6.30;97.20;;;;;;5071529;28;19897;-80
2022/04/13 00:34:31;;;;;;;;;;;2.70;95.90;;;;;;5052265;28;20011;-81
2022/04/13 00:36:59;;;;;;;;;;;5.60;96.20;;;;;;5069345;28;19909;-80
2022/04/13 00:39:29;;;;;;;;;;;6.00;96.80;;;;;;5069084;28;19913;-81
2022/04/13 00:42:00;;;;;;;;;;;5.70;96.30;;;;;;5072973;28;19917;-81
2022/04/13 00:44:30;;;;;;;;;;;6.00;96.00;;;;;;5058007;28;19987;-82
2022/04/13 00:46:57;;;;;;;;;;;6.00;96.20;;;;;;5077158;28;19928;-81
2022/04/13 00:49:26;;;;;;;;;;;6.30;96.50;;;;;;5026253;28;19901;-82
2022/04/13 00:51:57;;;;;;;;;;;5.90;96.00;;;;;;5072555;28;19947;-81
2022/04/13 00:54:42;;;;;;;;;;;5.40;96.30;;;;;;5032015;28;19917;-81
2022/04/13 00:57:18;;;;;;;;;;;6.30;96.70;;;;;;5042207;28;19909;-81
2022/04/13 00:59:53;;;;;;;;;;;5.70;96.40;;;;;;5039352;28;20003;-84
2022/04/13 01:02:21;;;;;;;;;;;5.20;96.50;;;;;;5059794;28;19917;-81
2022/04/13 01:04:48;;;;;;;;;;;5.20;96.80;;;;;;5044112;28;19921;-82
2022/04/13 01:07:16;;;;;;;;;;;5.90;96.80;;;;;;5041663;28;19939;-82
2022/04/13 01:09:46;;;;;;;;;;;6.30;97.30;;;;;;5043300;28;19908;-80
2022/04/13 01:12:12;;;;;;;;;;;6.20;97.40;;;;;;5065209;28;19909;-81
2022/04/13 01:14:42;;;;;;;;;;;6.00;97.40;;;;;;5048300;28;19919;-81
2022/04/13 01:17:25;;;;;;;;;;;3.50;96.00;;;;;;5059427;28;19962;-82
2022/04/13 01:20:05;;;;;;;;;;;5.50;96.80;;;;;;5067655;28;19920;-82
2022/04/13 01:22:53;;;;;;;;;;;6.00;97.10;;;;;;5068851;28;19924;-81
2022/04/13 01:25:22;;;;;;;;;;;5.80;96.80;;;;;;5009829;28;19973;-81
2022/04/13 01:27:48;;;;;;;;;;;5.30;96.70;;;;;;4988792;28;19910;-81
2022/04/13 01:30:15;;;;;;;;;;;5.00;96.80;;;;;;4990180;28;20158;-81
2022/04/13 01:33:04;;;;;;;;;;;4.30;96.50;;;;;;5006632;28;19917;-80
2022/04/13 01:35:48;;;;;;;;;;;5.50;97.30;;;;;;5004266;28;19921;-81
2022/04/13 01:38:14;;;;;;;;;;;5.30;98.50;;;;;;5005036;28;20439;-81
2022/04/13 01:40:40;;;;;;;;;;;5.30;98.30;;;;;;4987106;28;19973;-81
2022/04/13 01:43:45;;;;;;;;;;;5.40;98.30;;;;;;5007994;28;19921;-85
2022/04/13 01:46:11;;;;;;;;;;;5.30;97.30;;;;;;4965667;28;19953;-81
2022/04/13 01:48:36;;;;;;;;;;;5.50;97.70;;;;;;4946638;29;19918;-82
2022/04/13 01:51:02;;;;;;;;;;;5.90;98.50;;;;;;5000865;28;19910;-82
2022/04/13 01:53:28;;;;;;;;;;;7.60;98.20;;;;;;5003669;28;20422;-82
2022/04/13 01:55:54;;;;;;;;;;;4.30;97.90;;;;;;5002918;28;19914;-81
2022/04/13 01:58:20;;;;;;;;;;;5.40;98.50;;;;;;4986856;28;19949;-81
2022/04/13 02:00:46;;;;;;;;;;;6.00;97.90;;;;;;4985440;28;20272;-80
2022/04/13 02:03:12;;;;;;;;;;;4.80;98.20;;;;;;4979042;28;19945;-81
2022/04/13 02:05:40;;;;;;;;;;;4.70;98.00;;;;;;4969950;28;20304;-82
2022/04/13 02:08:06;;;;;;;;;;;4.80;97.70;;;;;;4989614;28;19948;-81
2022/04/13 02:10:35;;;;;;;;;;;4.80;97.60;;;;;;4992336;28;19909;-81
2022/04/13 02:13:00;;;;;;;;;;;4.90;97.60;;;;;;4989349;28;19971;-80
2022/04/13 02:15:26;;;;;;;;;;;4.90;97.50;;;;;;4988242;28;20286;-80
2022/04/13 02:17:51;;;;;;;;;;;4.90;97.50;;;;;;5020048;28;19983;-80
2022/04/13 02:20:17;;;;;;;;;;;4.80;97.60;;;;;;5014239;28;20110;-80
2022/04/13 02:22:46;;;;;;;;;;;4.90;97.60;;;;;;5037917;28;19917;-81
2022/04/13 02:25:13;;;;;;;;;;;4.80;97.60;;;;;;5018006;28;19913;-81
2022/04/13 02:27:38;;;;;;;;;;;4.80;97.80;;;;;;5023516;28;20620;-82
2022/04/13 02:30:04;;;;;;;;;;;4.80;97.80;;;;;;5034906;28;19916;-81
2022/04/13 02:32:31;;;;;;;;;;;5.50;98.00;;;;;;5033408;28;19935;-81
2022/04/13 02:34:57;;;;;;;;;;;5.00;97.80;;;;;;5032948;28;19931;-81
2022/04/13 02:37:23;;;;;;;;;;;4.80;98.40;;;;;;5033424;28;19917;-80
2022/04/13 02:39:48;;;;;;;;;;;5.00;98.30;;;;;;5015352;28;19910;-80
2022/04/13 02:42:14;;;;;;;;;;;2.20;97.60;;;;;;5033013;28;20205;-80
2022/04/13 02:44:43;;;;;;;;;;;5.30;98.60;;;;;;5015377;28;19980;-80
2022/04/13 02:47:12;;;;;;;;;;;0.90;96.80;;;;;;5012111;28;19909;-81
2022/04/13 02:49:37;;;;;;;;;;;4.70;98.10;;;;;;5010365;28;19909;-80
2022/04/13 02:52:03;;;;;;;;;;;6.30;98.80;;;;;;5012354;28;19920;-80
2022/04/13 02:54:31;;;;;;;;;;;4.60;98.00;;;;;;5028712;28;19956;-81
2022/04/13 02:56:57;;;;;;;;;;;4.50;98.50;;;;;;5028547;28;20008;-81
2022/04/13 02:59:25;;;;;;;;;;;5.60;99.10;;;;;;5016486;28;19949;-80
2022/04/13 03:01:51;;;;;;;;;;;6.10;98.90;;;;;;5035609;28;19917;-81
2022/04/13 03:04:18;;;;;;;;;;;4.70;98.60;;;;;;5032811;28;19924;-82
2022/04/13 03:06:44;;;;;;;;;;;5.70;98.30;;;;;;5015327;28;19921;-81
2022/04/13 03:09:10;;;;;;;;;;;2.90;98.40;;;;;;5015204;28;19909;-82
2022/04/13 03:11:37;;;;;;;;;;;4.80;98.70;;;;;;5033972;28;20845;-81
2022/04/13 03:14:04;;;;;;;;;;;5.20;98.80;;;;;;5018014;28;19963;-82
2022/04/13 03:16:29;;;;;;;;;;;3.50;98.00;;;;;;5018061;28;19917;-81
2022/04/13 03:18:55;;;;;;;;;;;5.00;99.00;;;;;;5035213;28;19960;-82
2022/04/13 03:21:21;;;;;;;;;;;4.60;98.70;;;;;;5018711;28;19929;-81
2022/04/13 03:23:46;;;;;;;;;;;4.70;98.60;;;;;;5034910;28;20102;-81
2022/04/13 03:26:16;;;;;;;;;;;4.20;98.70;;;;;;5016658;28;20306;-81
2022/04/13 03:28:45;;;;;;;;;;;5.40;99.10;;;;;;5031989;28;19992;-81
2022/04/13 03:31:13;;;;;;;;;;;5.00;98.70;;;;;;5029184;28;19921;-81
2022/04/13 03:33:39;;;;;;;;;;;5.50;99.20;;;;;;5030471;28;19913;-81
2022/04/13 03:36:06;;;;;;;;;;;4.80;98.90;;;;;;5012452;28;19976;-81
2022/04/13 03:38:32;;;;;;;;;;;2.90;97.70;;;;;;5032425;28;19909;-81
2022/04/13 03:40:57;;;;;;;;;;;5.50;99.40;;;;;;5015855;28;19916;-81
2022/04/13 03:43:26;;;;;;;;;;;4.70;98.80;;;;;;5023847;28;19920;-80
2022/04/13 03:45:52;;;;;;;;;;;5.40;99.00;;;;;;5031477;28;19916;-81
2022/04/13 03:48:18;;;;;;;;;;;5.40;99.40;;;;;;5031112;28;20438;-81
2022/04/13 03:50:43;;;;;;;;;;;5.20;99.10;;;;;;5049969;28;19916;-80
2022/04/13 03:53:12;;;;;;;;;;;2.80;98.50;;;;;;5031134;28;20284;-81
2022/04/13 03:55:38;;;;;;;;;;;4.40;98.50;;;;;;5049460;28;19908;-80
2022/04/13 03:58:03;;;;;;;;;;;4.80;98.90;;;;;;5054775;28;19909;-81
2022/04/13 04:00:29;;;;;;;;;;;4.00;98.70;;;;;;5059863;28;19968;-80
2022/04/13 04:02:55;;;;;;;;;;;4.20;99.60;;;;;;5033223;28;19928;-81
2022/04/13 04:05:22;;;;;;;;;;;2.90;99.10;;;;;;5055174;28;19948;-80
2022/04/13 04:07:49;;;;;;;;;;;4.80;99.40;;;;;;5035621;28;19932;-81
2022/04/13 04:10:16;;;;;;;;;;;4.30;99.50;;;;;;5051361;28;19909;-81
2022/04/13 04:12:42;;;;;;;;;;;4.60;99.10;;;;;;5035109;28;19909;-80
2022/04/13 04:15:11;;;;;;;;;;;4.50;99.70;;;;;;5045697;28;19916;-81
2022/04/13 04:17:38;;;;;;;;;;;1.60;98.90;;;;;;5030419;28;20434;-81
2022/04/13 04:20:05;;;;;;;;;;;4.00;99.10;;;;;;5052068;28;20174;-81
2022/04/13 04:22:30;;;;;;;;;;;4.10;99.30;;;;;;5046325;28;19917;-81
2022/04/13 04:24:56;;;;;;;;;;;4.00;99.60;;;;;;5047907;28;20425;-81
2022/04/13 04:27:21;;;;;;;;;;;4.10;99.80;;;;;;5052883;28;19916;-81
2022/04/13 04:29:52;;;;;;;;;;;4.10;99.50;;;;;;5058756;28;19893;-82
2022/04/13 04:32:18;;;;;;;;;;;4.00;99.10;;;;;;5058607;28;19897;-81
2022/04/13 04:34:43;;;;;;;;;;;4.20;99.10;;;;;;5075988;28;19917;-82
2022/04/13 04:37:09;;;;;;;;;;;5.80;99.90;;;;;;5076040;28;19960;-82
2022/04/13 04:39:35;;;;;;;;;;;4.50;99.70;;;;;;5073988;28;20429;-81
2022/04/13 04:42:02;;;;;;;;;;;4.50;99.50;;;;;;5055786;28;19920;-81
2022/04/13 04:44:30;;;;;;;;;;;4.20;99.60;;;;;;5076823;28;19925;-82
2022/04/13 04:46:55;;;;;;;;;;;4.20;98.90;;;;;;5078160;28;19913;-82
2022/04/13 04:49:21;;;;;;;;;;;5.00;99.90;;;;;;5060284;28;19982;-82
2022/04/13 04:51:46;;;;;;;;;;;4.40;99.90;;;;;;5077187;28;19913;-82
2022/04/13 04:54:12;;;;;;;;;;;4.80;99.90;;;;;;5060930;28;19983;-82
2022/04/13 04:56:40;;;;;;;;;;;5.20;99.90;;;;;;5061116;28;19924;-82
2022/04/13 04:59:06;;;;;;;;;;;4.00;99.90;;;;;;5044204;28;20224;-81
2022/04/13 05:01:31;;;;;;;;;;;5.20;99.40;;;;;;5034117;28;19952;-82
2022/04/13 05:03:57;;;;;;;;;;;5.20;99.30;;;;;;5049788;28;20186;-81
2022/04/13 05:06:25;;;;;;;;;;;4.40;99.20;;;;;;5049132;28;19939;-80
2022/04/13 05:08:51;;;;;;;;;;;4.90;98.80;;;;;;5030850;28;19912;-82
2022/04/13 05:11:18;;;;;;;;;;;4.60;98.30;;;;;;5049964;28;20177;-81
2022/04/13 05:13:46;;;;;;;;;;;4.70;98.40;;;;;;5033016;28;19909;-81
2022/04/13 05:16:12;;;;;;;;;;;4.70;98.10;;;;;;5041579;28;20283;-81
2022/04/13 05:18:41;;;;;;;;;;;7.00;98.50;;;;;;5048741;28;19908;-81
2022/04/13 05:21:07;;;;;;;;;;;5.60;98.40;;;;;;5048033;28;19913;-82
2022/04/13 05:23:32;;;;;;;;;;;5.00;98.80;;;;;;5030040;28;19913;-82
2022/04/13 05:25:58;;;;;;;;;;;5.10;98.30;;;;;;5040164;28;19932;-81
2022/04/13 05:28:24;;;;;;;;;;;5.20;98.50;;;;;;5067661;28;20018;-81
2022/04/13 05:30:50;;;;;;;;;;;2.80;97.70;;;;;;5070329;28;19905;-81
2022/04/13 05:33:16;;;;;;;;;;;5.80;98.30;;;;;;5056166;28;19916;-81
2022/04/13 05:35:41;;;;;;;;;;;6.10;98.80;;;;;;5054260;28;20540;-82
2022/04/13 05:38:07;;;;;;;;;;;5.40;97.80;;;;;;5049679;28;19912;-81
2022/04/13 05:40:34;;;;;;;;;;;7.60;97.90;;;;;;5055536;28;19951;-81
2022/04/13 05:43:09;;;;;;;;;;;5.80;96.90;;;;;;5038502;28;20012;-81
2022/04/13 05:45:36;;;;;;;;;;;7.90;97.20;;;;;;5057991;28;20435;-80
2022/04/13 05:48:02;;;;;;;;;;;5.80;96.30;;;;;;5042667;28;19905;-82
2022/04/13 05:50:29;;;;;;;;;;;5.90;96.10;;;;;;5060615;28;19926;-81
2022/04/13 05:52:56;;;;;;;;;;;6.10;95.90;;;;;;5041206;28;19917;-80
2022/04/13 05:55:22;;;;;;;;;;;5.00;95.00;;;;;;5040396;28;19913;-81
2022/04/13 05:57:47;;;;;;;;;;;6.20;96.10;;;;;;5048681;28;19915;-82
2022/04/13 06:00:13;;;;;;;;;;;6.70;95.70;;;;;;5050264;28;19968;-81
2022/04/13 06:02:41;;;;;;;;;;;8.60;95.50;;;;;;5029835;28;20348;-79
2022/04/13 06:05:08;;;;;;;;;;;6.60;94.90;;;;;;5029138;28;20003;-81
2022/04/13 06:07:35;;;;;;;;;;;6.70;95.30;;;;;;5049617;28;20190;-81
2022/04/13 06:10:05;;;;;;;;;;;6.70;95.40;;;;;;5026769;28;20575;-81
2022/04/13 06:12:31;;;;;;;;;;;6.90;95.20;;;;;;5026148;28;19912;-81
2022/04/13 06:15:04;;;;;;;;;;;7.10;94.50;;;;;;5032001;28;20102;-81
2022/04/13 06:17:30;;;;;;;;;;;6.10;93.70;;;;;;5045130;28;19904;-81
2022/04/13 06:19:58;;;;;;;;;;;7.10;94.80;;;;;;5028185;28;20450;-81
2022/04/13 06:22:24;;;;;;;;;;;7.50;94.70;;;;;;5030212;28;19924;-81
2022/04/13 06:25:00;;;;;;;;;;;9.20;95.30;;;;;;5049025;28;19913;-81
2022/04/13 06:27:31;;;;;;;;;;;7.70;93.40;;;;;;5034241;28;19919;-80
2022/04/13 06:30:00;;;;;;;;;;;5.90;93.10;;;;;;5039483;28;19905;-81
2022/04/13 06:32:35;;;;;;;;;;;8.60;93.20;;;;;;5059979;28;19912;-81
2022/04/13 06:35:07;;;;;;;;;;;8.10;92.20;;;;;;5035690;28;20544;-80
2022/04/13 06:37:33;;;;;;;;;;;8.30;92.20;;;;;;5034052;28;20003;-80
2022/04/13 06:40:02;;;;;;;;;;;5.70;91.00;;;;;;5054046;28;20564;-80
2022/04/13 06:42:31;;;;;;;;;;;8.40;92.10;;;;;;5040527;28;19920;-80
2022/04/13 06:45:01;;;;;;;;;;;8.90;91.10;;;;;;5061156;28;19992;-80
2022/04/13 06:47:33;;;;;;;;;;;8.40;90.30;;;;;;5049166;28;20522;-80
2022/04/13 06:50:05;;;;;;;;;;;8.20;90.30;;;;;;5057199;28;19905;-80
2022/04/13 06:52:37;;;;;;;;;;;9.50;90.60;;;;;;5057133;28;19897;-81
2022/04/13 06:55:04;;;;;;;;;;;12.40;90.40;;;;;;5071693;28;19968;-82
2022/04/13 06:57:37;;;;;;;;;;;10.20;89.20;;;;;;5072042;28;19900;-81
2022/04/13 07:00:05;;;;;;;;;;;9.40;87.90;;;;;;5056433;28;19916;-81
2022/04/13 07:02:33;;;;;;;;;;;7.90;85.70;;;;;;5040289;28;19912;-81
2022/04/13 07:04:59;;;;;;;;;;;9.80;87.40;;;;;;5061714;28;19909;-81
2022/04/13 07:07:26;;;;;;;;;;;10.10;88.00;;;;;;5043385;28;20573;-81
2022/04/13 07:09:52;;;;;;;;;;;10.70;86.10;;;;;;5041980;28;19932;-81
2022/04/13 07:12:19;;;;;;;;;;;10.80;85.20;;;;;;5060119;28;20023;-81
2022/04/13 07:14:46;;;;;;;;;;;10.60;87.30;;;;;;5042758;28;19916;-81
2022/04/13 07:17:13;;;;;;;;;;;8.90;82.00;;;;;;5055015;28;19909;-81
2022/04/13 07:19:49;;;;;;;;;;;11.30;83.30;;;;;;5036237;28;19913;-81
2022/04/13 07:22:17;;;;;;;;;;;11.10;82.40;;;;;;5057654;28;19924;-80
2022/04/13 07:24:47;;;;;;;;;;;10.50;82.00;;;;;;5036122;28;19994;-82
2022/04/13 07:27:15;;;;;;;;;;;11.10;83.00;;;;;;5036734;28;19916;-82
2022/04/13 07:29:47;;;;;;;;;;;11.30;82.50;;;;;;5034322;28;19909;-81
2022/04/13 07:32:18;;;;;;;;;;;10.60;78.80;;;;;;5027357;28;20024;-82
2022/04/13 07:34:51;;;;;;;;;;;12.90;79.90;;;;;;5040835;28;19968;-81
2022/04/13 07:37:19;;;;;;;;;;;11.60;77.40;;;;;;5048997;28;19905;-80
2022/04/13 07:39:44;;;;;;;;;;;12.10;79.30;;;;;;5066017;28;19905;-83
2022/04/13 07:42:10;;;;;;;;;;;11.80;80.00;;;;;;5068678;28;20126;-83
2022/04/13 07:44:36;;;;;;;;;;;12.10;79.70;;;;;;5039772;28;19916;-83
2022/04/13 07:47:10;;;;;;;;;;;12.00;79.10;;;;;;5038030;28;19916;-81
2022/04/13 07:49:47;;;;;;;;;;;12.90;76.30;;;;;;5036893;28;19905;-82
2022/04/13 07:52:47;;;;;;;;;;;12.50;73.40;;;;;;5037343;28;19905;-82
2022/04/13 07:55:59;;;;;;;;;;;13.10;73.60;;;;;;5033684;28;19916;-88
2022/04/13 07:58:26;;;;;;;;;;;12.80;73.00;;;;;;5047872;28;19920;-83
2022/04/13 08:10:18;;;;;;;;;;;11.30;68.60;;;;;;4961532;28;19925;-84
2022/04/13 08:13:30;;;;;;;;;;;13.70;69.90;;;;;;4960794;28;19910;-84
2022/04/13 08:16:46;;;;;;;;;;;13.50;67.00;;;;;;4961367;28;19962;-85
2022/04/13 08:21:50;;;;;;;;;;;14.20;64.70;;;;;;5027626;22;20598;-86
2022/04/13 08:24:19;;;;;;;;;;;14.30;63.70;;;;;;5020993;28;19999;-81
2022/04/13 08:26:44;;;;;;;;;;;14.70;62.40;;;;;;5004124;28;20106;-90
2022/04/13 08:29:10;;;;;;;;;;;14.50;62.90;;;;;;5002748;28;20403;-81
2022/04/13 08:31:44;;;;;;;;;;;14.60;61.60;;;;;;4986706;28;19920;-82
2022/04/13 08:34:10;;;;;;;;;;;14.90;63.10;;;;;;5021185;28;20008;-74
2022/04/13 08:36:36;;;;;;;;;;;14.80;61.50;;;;;;5003325;28;19915;-81
2022/04/13 08:39:02;;;;;;;;;;;15.00;60.90;;;;;;5002425;28;19909;-85
2022/04/13 08:41:43;;;;;;;;;;;15.20;59.40;;;;;;5003272;28;19975;-80
2022/04/13 08:44:20;;;;;;;;;;;15.40;58.40;;;;;;5003456;28;19909;-80
2022/04/13 08:46:55;;;;;;;;;;;15.50;57.50;;;;;;5003501;28;20061;-85
2022/04/13 08:49:21;;;;;;;;;;;15.70;59.30;;;;;;5020983;28;19913;-80
2022/04/13 08:51:48;;;;;;;;;;;15.70;56.60;;;;;;5020761;28;19913;-88
2022/04/13 08:54:17;;;;;;;;;;;15.70;55.70;;;;;;5019725;28;19913;-87
2022/04/13 08:56:49;;;;;;;;;;;15.70;56.10;;;;;;5002699;28;20377;-81
2022/04/13 08:59:27;;;;;;;;;;;15.50;55.80;;;;;;5019873;28;20074;-86
2022/04/13 09:01:53;;;;;;;;;;;15.50;55.10;;;;;;5002675;28;20667;-83
2022/04/13 09:04:20;;;;;;;;;;;15.70;55.40;;;;;;5001964;28;19999;-80
2022/04/13 09:06:47;;;;;;;;;;;16.10;53.70;;;;;;5003511;28;19920;-85
2022/04/13 09:09:29;;;;;;;;;;;16.20;53.90;;;;;;5003684;28;19916;-81
2022/04/13 09:11:57;;;;;;;;;;;16.40;53.90;;;;;;5006964;28;20066;-80
2022/04/13 09:14:22;;;;;;;;;;;16.40;53.40;;;;;;5024098;28;19932;-79
2022/04/13 09:16:49;;;;;;;;;;;16.50;55.10;;;;;;5041779;28;19905;-83
2022/04/13 09:19:15;;;;;;;;;;;15.10;52.60;;;;;;5025590;28;19969;-79
2022/04/13 09:21:58;;;;;;;;;;;16.90;52.80;;;;;;5023469;28;19920;-79
2022/04/13 09:24:36;;;;;;;;;;;;;;;;;;;;;
2022/04/13 09:27:13;;;;;;;;;;;17.20;52.20;;;;;;5029504;28;19909;-83
2022/04/13 09:29:44;;;;;;;;;;;17.60;53.90;;;;;;5009367;28;19909;-81
2022/04/13 09:32:23;;;;;;;;;;;15.50;52.10;;;;;;5009409;28;19916;-79
2022/04/13 09:34:51;;;;;;;;;;;17.10;52.90;;;;;;5005041;28;19909;-80
2022/04/13 09:37:18;;;;;;;;;;;14.80;52.20;;;;;;5004235;28;19916;-81
2022/04/13 09:39:51;;;;;;;;;;;14.30;52.10;;;;;;5003579;28;20555;-80
2022/04/13 09:42:21;;;;;;;;;;;17.80;53.70;;;;;;5020857;28;19917;-81
2022/04/13 09:44:53;;;;;;;;;;;17.80;53.90;;;;;;5019779;28;19909;-81
2022/04/13 09:47:19;;;;;;;;;;;17.50;53.00;;;;;;5021998;28;19940;-85
2022/04/13 09:49:57;;;;;;;;;;;18.00;54.00;;;;;;5021419;28;19952;-87
2022/04/13 09:52:31;;;;;;;;;;;19.00;52.80;;;;;;5020982;28;19960;-86
2022/04/13 09:54:58;;;;;;;;;;;17.80;51.20;;;;;;5020109;28;20595;-86
2022/04/13 09:57:24;;;;;;;;;;;18.40;52.90;;;;;;5020776;28;19913;-88
2022/04/13 09:59:57;;;;;;;;;;;17.30;52.40;;;;;;5002783;28;19963;-80
2022/04/13 10:02:35;;;;;;;;;;;18.10;52.20;;;;;;5018518;28;19925;-77
2022/04/13 10:05:02;;;;;;;;;;;18.40;52.50;;;;;;5018562;28;19910;-81
2022/04/13 10:07:27;;;;;;;;;;;18.70;51.00;;;;;;5018337;28;19909;-80
2022/04/13 10:09:53;;;;;;;;;;;18.80;49.40;;;;;;5001795;28;20480;-86
2022/04/13 10:12:21;;;;;;;;;;;18.90;49.50;;;;;;5019431;28;19944;-83
2022/04/13 10:14:47;;;;;;;;;;;18.40;49.60;;;;;;5019389;28;19909;-79
2022/04/13 10:17:14;;;;;;;;;;;19.20;49.80;;;;;;5003074;28;19915;-84
2022/04/13 10:19:40;;;;;;;;;;;19.40;49.50;;;;;;5001709;28;19913;-86
2022/04/13 10:22:05;;;;;;;;;;;19.50;47.20;;;;;;5019333;28;19928;-83
2022/04/13 10:24:32;;;;;;;;;;;19.60;47.20;;;;;;5019176;28;19909;-85
2022/04/13 10:27:09;;;;;;;;;;;19.90;49.60;;;;;;5002486;28;19917;-81
2022/04/13 10:29:35;;;;;;;;;;;20.00;46.60;;;;;;5002068;28;19977;-83
2022/04/13 10:32:01;;;;;;;;;;;19.90;46.10;;;;;;5002024;28;19909;-79
2022/04/13 10:34:31;;;;;;;;;;;20.10;47.30;;;;;;5019206;28;19909;-83
2022/04/13 10:36:57;;;;;;;;;;;20.30;46.50;;;;;;5019825;28;19924;-82
2022/04/13 10:39:23;;;;;;;;;;;20.20;46.90;;;;;;5003709;28;20310;-81
2022/04/13 10:41:49;;;;;;;;;;;20.50;46.10;;;;;;5006765;28;20573;-87
2022/04/13 10:44:26;;;;;;;;;;;20.70;45.60;;;;;;5006670;28;19917;-81
2022/04/13 10:46:57;;;;;;;;;;;20.30;46.00;;;;;;5005489;28;19918;-80
2022/04/13 10:49:31;;;;;;;;;;;24.00;47.60;;;;;;5023089;28;19917;-81
2022/04/13 10:52:09;;;;;;;;;;;21.10;43.90;;;;;;5005727;28;19905;-82
2022/04/13 10:54:51;;;;;;;;;;;18.10;42.00;;;;;;5006044;28;19928;-82
2022/04/13 10:57:20;;;;;;;;;;;21.30;45.50;;;;;;5023748;28;19909;-80
2022/04/13 10:59:53;;;;;;;;;;;21.90;43.80;;;;;;5005725;28;19944;-81
2022/04/13 11:02:40;;;;;;;;;;;;;;;;;;;;;
2022/04/13 11:05:12;;;;;;;;;;;22.00;44.20;;;;;;5022265;28;19909;-83
2022/04/13 11:07:39;;;;;;;;;;;21.90;42.00;;;;;;5022618;28;19913;-82
2022/04/13 11:10:10;;;;;;;;;;;19.10;40.60;;;;;;5022462;28;19944;-81
2022/04/13 11:12:37;;;;;;;;;;;22.40;41.10;;;;;;5004888;28;20004;-84
2022/04/13 11:15:03;;;;;;;;;;;23.00;40.60;;;;;;5022946;28;19920;-85
2022/04/13 11:17:28;;;;;;;;;;;22.90;41.80;;;;;;5023878;28;19909;-87
2022/04/13 11:20:13;;;;;;;;;;;23.30;39.90;;;;;;5023289;28;20008;-85
2022/04/13 11:22:39;;;;;;;;;;;23.40;38.80;;;;;;5006139;28;19928;-85
2022/04/13 11:25:33;;;;;;;;;;;23.70;39.60;;;;;;5005537;28;19910;-82
2022/04/13 11:28:25;;;;;;;;;;;24.10;38.90;;;;;;5005697;28;19916;-85
2022/04/13 11:31:04;;;;;;;;;;;23.90;39.40;;;;;;4961291;28;19914;-81
2022/04/13 11:34:05;;;;;;;;;;;23.60;38.10;;;;;;4961527;28;20728;-81
2022/04/13 11:36:49;;;;;;;;;;;26.00;39.20;;;;;;4913446;28;19932;-81
2022/04/13 11:39:14;;;;;;;;;;;23.60;38.90;;;;;;4945284;28;20008;-79
2022/04/13 11:41:59;;;;;;;;;;;24.00;39.80;;;;;;4961053;28;20001;-84
2022/04/13 11:44:48;;;;;;;;;;;24.10;36.70;;;;;;4944426;28;19918;-83
2022/04/13 11:47:43;;;;;;;;;;;24.80;36.00;;;;;;4945198;28;19922;-87
2022/04/13 11:50:28;;;;;;;;;;;24.80;36.40;;;;;;4921736;29;19981;-84
2022/04/13 11:56:07;;;;;;;;;;;24.60;35.50;;;;;;4902998;29;19962;-86
2022/04/13 11:58:56;;;;;;;;;;;25.10;36.70;;;;;;4903474;29;19918;-87
2022/04/13 12:01:36;;;;;;;;;;;25.20;35.90;;;;;;4902986;29;19919;-85
2022/04/13 12:04:08;;;;;;;;;;;26.10;36.00;;;;;;4903180;29;20001;-85
2022/04/13 12:06:42;;;;;;;;;;;25.00;34.80;;;;;;4906957;29;19915;-86
2022/04/13 12:09:09;;;;;;;;;;;25.80;34.20;;;;;;4921868;29;19915;-84
2022/04/13 12:11:43;;;;;;;;;;;25.40;34.10;;;;;;4931716;29;19970;-83
2022/04/13 12:14:10;;;;;;;;;;;25.40;32.70;;;;;;4933720;29;19937;-79
2022/04/13 12:16:38;;;;;;;;;;;25.60;32.90;;;;;;4933426;29;20045;-83
2022/04/13 12:19:05;;;;;;;;;;;25.80;33.20;;;;;;4922942;29;19962;-85
2022/04/13 12:21:35;;;;;;;;;;;26.40;33.70;;;;;;4932117;28;19923;-84
2022/04/13 12:24:01;;;;;;;;;;;26.70;33.30;;;;;;4929560;29;19918;-85
2022/04/13 12:26:36;;;;;;;;;;;26.90;31.40;;;;;;4950170;28;19910;-85
2022/04/13 12:29:22;;;;;;;;;;;26.60;31.60;;;;;;4968785;29;20593;-86
2022/04/13 12:31:56;;;;;;;;;;;26.30;31.50;;;;;;4966070;28;19907;-87
2022/04/13 12:34:23;;;;;;;;;;;26.20;32.20;;;;;;5028349;28;19920;-86
2022/04/13 12:36:50;;;;;;;;;;;26.00;31.60;;;;;;5026216;28;19910;-87
2022/04/13 12:39:15;;;;;;;;;;;25.10;31.80;;;;;;5019127;28;19910;-87
2022/04/13 12:41:41;;;;;;;;;;;26.50;32.40;;;;;;5017017;28;19917;-85
2022/04/13 12:44:07;;;;;;;;;;;26.70;32.40;;;;;;5014407;28;19968;-86
2022/04/13 12:46:33;;;;;;;;;;;27.00;31.60;;;;;;5008331;28;19937;-84
2022/04/13 12:48:59;;;;;;;;;;;23.40;30.10;;;;;;5001834;28;19928;-83
2022/04/13 12:51:42;;;;;;;;;;;25.90;34.20;;;;;;5000027;28;19914;-82
2022/04/13 12:54:16;;;;;;;;;;;26.60;32.70;;;;;;5000683;28;20004;-84
2022/04/13 12:57:08;;;;;;;;;;;29.00;34.30;;;;;;5000049;28;19913;-81
2022/04/13 12:59:50;;;;;;;;;;;27.40;30.30;;;;;;4995520;28;20071;-85
2022/04/13 13:02:21;;;;;;;;;;;27.50;30.00;;;;;;4999969;28;20008;-82
2022/04/13 13:04:54;;;;;;;;;;;28.40;30.70;;;;;;4999980;28;19972;-82
2022/04/13 13:07:30;;;;;;;;;;;28.20;30.90;;;;;;5000146;28;19913;-84
2022/04/13 13:09:56;;;;;;;;;;;27.70;30.80;;;;;;5000024;28;19917;-85
2022/04/13 13:12:28;;;;;;;;;;;29.40;32.10;;;;;;5000073;28;20572;-83
2022/04/13 13:14:57;;;;;;;;;;;29.40;32.80;;;;;;4999571;28;19913;-80
2022/04/13 13:17:31;;;;;;;;;;;30.70;29.40;;;;;;5000830;28;19937;-82
2022/04/13 13:20:10;;;;;;;;;;;29.60;29.20;;;;;;4999844;28;19910;-82
2022/04/13 13:23:13;;;;;;;;;;;30.70;29.00;;;;;;5019497;28;19924;-82
2022/04/13 13:26:08;;;;;;;;;;;31.60;28.80;;;;;;5002554;28;19913;-81
2022/04/13 13:28:51;;;;;;;;;;;29.70;28.40;;;;;;5002066;28;19951;-82
2022/04/13 13:31:30;;;;;;;;;;;31.10;29.20;;;;;;5020606;28;19912;-81
2022/04/13 13:34:07;;;;;;;;;;;30.50;28.70;;;;;;5003193;28;19963;-79
2022/04/13 13:37:05;;;;;;;;;;;29.30;27.70;;;;;;5002243;28;19996;-80
2022/04/13 13:39:38;;;;;;;;;;;30.70;28.90;;;;;;4959459;28;19913;-83
2022/04/13 13:42:44;;;;;;;;;;;;;;;;;;;;;
2022/04/13 13:45:30;;;;;;;;;;;34.60;29.00;;;;;;4957578;28;19989;-80
2022/04/13 13:48:04;;;;;;;;;;;30.90;27.20;;;;;;4941785;28;19911;-80
2022/04/13 13:50:39;;;;;;;;;;;31.30;28.30;;;;;;4919935;29;20467;-80
2022/04/13 13:56:37;;;;;;;;;;;31.80;27.30;;;;;;4910525;29;19915;-82
2022/04/13 13:59:25;;;;;;;;;;;;;;;;;;;;;
2022/04/13 14:02:35;;;;;;;;;;;30.50;27.30;;;;;;4920394;29;19918;-86
2022/04/13 14:04:52;;;;;;;;;;;30.80;28.80;;;;;;4915413;29;20653;-81
2022/04/13 14:07:42;;;;;;;;;;;30.80;27.60;;;;;;4905007;29;20328;-85
2022/04/13 14:10:39;;;;;;;;;;;28.20;26.00;;;;;;4904448;29;20014;-85
2022/04/13 14:13:19;;;;;;;;;;;31.20;27.60;;;;;;4904790;29;19910;-83
2022/04/13 14:16:05;;;;;;;;;;;;;;;;;;;;;
2022/04/13 14:24:27;;;;;;;;;;;29.40;25.10;;;;;;5020596;28;20031;-81
2022/04/13 14:30:24;;;;;;;;;;;32.10;26.30;;;;;;4845751;29;19919;-82
2022/04/13 14:33:25;;;;;;;;;;;31.50;27.80;;;;;;4802852;29;19947;-82
2022/04/13 14:36:04;;;;;;;;;;;31.70;27.50;;;;;;4775297;30;19953;-83
2022/04/13 14:38:36;;;;;;;;;;;32.30;27.60;;;;;;4756922;30;19917;-83
2022/04/13 14:47:26;;;;;;;;;;;31.90;27.90;;;;;;4732281;30;20055;-82
2022/04/13 14:50:09;;;;;;;;;;;28.00;24.50;;;;;;4728294;30;19911;-83
2022/04/13 14:52:35;;;;;;;;;;;31.80;28.50;;;;;;4725606;29;19915;-81
2022/04/13 14:55:04;;;;;;;;;;;30.10;27.60;;;;;;4724267;30;19921;-82
2022/04/13 14:57:29;;;;;;;;;;;30.20;27.70;;;;;;4729326;30;19914;-81
2022/04/13 14:59:55;;;;;;;;;;;30.20;27.40;;;;;;4737655;30;19922;-82
2022/04/13 15:02:21;;;;;;;;;;;30.20;27.10;;;;;;4736569;30;20021;-82
2022/04/13 15:04:47;;;;;;;;;;;30.40;27.60;;;;;;4735874;30;19918;-80
2022/04/13 15:07:13;;;;;;;;;;;30.70;27.00;;;;;;4788280;29;19912;-81
2022/04/13 15:09:39;;;;;;;;;;;31.30;27.40;;;;;;4824006;29;20003;-82
2022/04/13 15:12:05;;;;;;;;;;;30.70;26.80;;;;;;4860807;29;20581;-84
2022/04/13 15:14:31;;;;;;;;;;;30.50;26.90;;;;;;4903124;29;19922;-83
2022/04/13 15:16:56;;;;;;;;;;;30.60;27.00;;;;;;4925028;29;19917;-80
2022/04/13 15:19:22;;;;;;;;;;;31.00;27.10;;;;;;4937152;29;20001;-80
2022/04/13 15:21:48;;;;;;;;;;;30.70;26.50;;;;;;4983401;28;19913;-81
2022/04/13 15:24:13;;;;;;;;;;;30.30;27.10;;;;;;5006084;28;19918;-81
2022/04/13 15:26:40;;;;;;;;;;;30.20;27.30;;;;;;5001574;28;19948;-81